createdAt,value
2022-09-18T00:00:33.961Z,9.57
2022-09-18T00:01:34.009Z,9.51
2022-09-18T00:02:33.962Z,9.51
2022-09-18T00:03:33.920Z,9.51
2022-09-18T00:04:33.911Z,9.51
2022-09-18T00:05:33.955Z,9.51
2022-09-18T00:06:33.910Z,9.51
2022-09-18T00:07:33.960Z,9.51
2022-09-18T00:08:34.077Z,9.51
2022-09-18T00:09:33.888Z,9.51
2022-09-18T00:10:33.902Z,9.51
2022-09-18T00:11:33.909Z,9.51
2022-09-18T00:12:33.905Z,9.51
2022-09-18T00:13:33.906Z,9.51
2022-09-18T00:14:33.911Z,9.51
2022-09-18T00:15:34.064Z,9.51
2022-09-18T00:16:34.238Z,9.51
2022-09-18T00:17:34.194Z,9.51
2022-09-18T00:18:34.287Z,9.57
2022-09-18T00:19:34.264Z,9.51
2022-09-18T00:20:34.352Z,9.51
2022-09-18T00:21:34.240Z,9.51
2022-09-18T00:22:34.313Z,9.57
2022-09-18T00:23:33.957Z,9.51
2022-09-18T00:24:33.902Z,9.51
2022-09-18T00:25:33.910Z,9.57
2022-09-18T00:26:33.912Z,9.57
2022-09-18T00:27:33.919Z,9.57
2022-09-18T00:28:33.901Z,9.57
2022-09-18T00:29:33.900Z,9.57
2022-09-18T00:30:33.991Z,9.57
2022-09-18T00:31:34.033Z,9.57
2022-09-18T00:32:33.996Z,9.57
2022-09-18T00:33:33.908Z,9.57
2022-09-18T00:34:33.900Z,9.57
2022-09-18T00:35:33.905Z,9.57
2022-09-18T00:36:33.957Z,9.57
2022-09-18T00:37:33.927Z,9.57
2022-09-18T00:38:33.932Z,9.57
2022-09-18T00:39:34.179Z,9.57
2022-09-18T00:40:34.023Z,9.57
2022-09-18T00:41:33.903Z,9.57
2022-09-18T00:42:33.960Z,9.57
2022-09-18T00:43:33.953Z,9.57
2022-09-18T00:44:33.930Z,9.57
2022-09-18T00:45:33.933Z,9.51
2022-09-18T00:46:34.013Z,9.51
2022-09-18T00:47:34.022Z,9.51
2022-09-18T00:48:33.903Z,9.51
2022-09-18T00:49:33.895Z,9.51
2022-09-18T00:50:33.914Z,9.51
2022-09-18T00:51:33.913Z,9.51
2022-09-18T00:52:33.940Z,9.51
2022-09-18T00:53:33.909Z,9.51
2022-09-18T00:54:33.955Z,9.51
2022-09-18T00:55:33.972Z,9.51
2022-09-18T00:56:33.949Z,9.51
2022-09-18T00:57:33.938Z,9.51
2022-09-18T00:58:33.956Z,9.51
2022-09-18T00:59:33.920Z,9.51
2022-09-18T01:00:33.983Z,9.51
2022-09-18T01:01:34.277Z,9.51
2022-09-18T01:02:34.200Z,9.51
2022-09-18T01:03:33.915Z,9.51
2022-09-18T01:04:33.898Z,9.51
2022-09-18T01:05:33.894Z,9.51
2022-09-18T01:06:33.893Z,9.57
2022-09-18T01:07:33.915Z,9.57
2022-09-18T01:08:33.897Z,9.57
2022-09-18T01:09:33.969Z,9.57
2022-09-18T01:10:34.168Z,9.57
2022-09-18T01:11:33.908Z,9.51
2022-09-18T01:12:33.946Z,9.57
2022-09-18T01:13:33.955Z,9.57
2022-09-18T01:14:33.922Z,9.57
2022-09-18T01:15:33.919Z,9.57
2022-09-18T01:16:33.975Z,9.57
2022-09-18T01:17:33.984Z,9.57
2022-09-18T01:18:33.962Z,9.57
2022-09-18T01:19:33.897Z,9.57
2022-09-18T01:20:33.891Z,9.57
2022-09-18T01:21:33.899Z,9.57
2022-09-18T01:22:33.906Z,9.57
2022-09-18T01:23:33.983Z,9.57
2022-09-18T01:24:33.898Z,9.57
2022-09-18T01:25:33.959Z,9.57
2022-09-18T01:26:33.940Z,9.57
2022-09-18T01:27:33.899Z,9.57
2022-09-18T01:28:33.903Z,9.57
2022-09-18T01:29:33.898Z,9.57
2022-09-18T01:30:33.958Z,9.57
2022-09-18T01:31:34.002Z,9.57
2022-09-18T01:32:33.907Z,9.51
2022-09-18T01:33:33.946Z,9.57
2022-09-18T01:34:33.907Z,9.57
2022-09-18T01:35:42.479Z,9.57
2022-09-18T01:36:34.007Z,9.57
2022-09-18T01:37:33.960Z,9.57
2022-09-18T01:38:33.892Z,9.57
2022-09-18T01:39:33.911Z,9.57
2022-09-18T01:40:34.067Z,9.57
2022-09-18T01:41:34.059Z,9.57
2022-09-18T01:42:33.901Z,9.57
2022-09-18T01:43:33.940Z,9.57
2022-09-18T01:44:33.897Z,9.57
2022-09-18T01:45:33.896Z,9.57
2022-09-18T01:46:34.015Z,9.57
2022-09-18T01:47:33.890Z,9.57
2022-09-18T01:48:33.952Z,9.57
2022-09-18T01:49:33.921Z,9.57
2022-09-18T01:50:33.888Z,9.57
2022-09-18T01:51:33.999Z,9.57
2022-09-18T01:52:33.928Z,9.57
2022-09-18T01:53:33.899Z,9.57
2022-09-18T01:54:33.888Z,9.57
2022-09-18T01:55:33.920Z,9.57
2022-09-18T01:56:34.031Z,9.57
2022-09-18T01:57:33.955Z,9.57
2022-09-18T01:58:33.892Z,9.57
2022-09-18T01:59:33.896Z,9.57
2022-09-18T02:00:33.893Z,9.57
2022-09-18T02:01:34.126Z,9.57
2022-09-18T02:02:34.082Z,9.57
2022-09-18T02:03:33.931Z,9.57
2022-09-18T02:04:33.936Z,9.57
2022-09-18T02:05:33.923Z,9.57
2022-09-18T02:06:33.966Z,9.57
2022-09-18T02:07:34.021Z,9.51
2022-09-18T02:08:33.899Z,9.51
2022-09-18T02:09:33.891Z,9.51
2022-09-18T02:10:33.897Z,9.51
2022-09-18T02:11:33.897Z,9.51
2022-09-18T02:12:34.146Z,9.51
2022-09-18T02:13:33.896Z,9.51
2022-09-18T02:14:33.895Z,9.51
2022-09-18T02:15:33.979Z,9.51
2022-09-18T02:16:33.953Z,9.51
2022-09-18T02:17:33.895Z,9.51
2022-09-18T02:18:33.902Z,9.51
2022-09-18T02:19:33.957Z,9.51
2022-09-18T02:20:33.934Z,9.51
2022-09-18T02:21:33.905Z,9.51
2022-09-18T02:22:33.897Z,9.51
2022-09-18T02:23:33.900Z,9.51
2022-09-18T02:24:33.916Z,9.51
2022-09-18T02:25:33.903Z,9.51
2022-09-18T02:26:33.892Z,9.51
2022-09-18T02:27:33.951Z,9.45
2022-09-18T02:28:34.047Z,9.45
2022-09-18T02:29:33.902Z,9.45
2022-09-18T02:30:33.952Z,9.45
2022-09-18T02:31:34.008Z,9.51
2022-09-18T02:32:33.905Z,9.51
2022-09-18T02:33:33.945Z,9.45
2022-09-18T02:34:33.898Z,9.51
2022-09-18T02:35:33.977Z,9.51
2022-09-18T02:36:33.934Z,9.45
2022-09-18T02:37:33.903Z,9.45
2022-09-18T02:38:33.873Z,9.45
2022-09-18T02:39:34.006Z,9.45
2022-09-18T02:40:34.009Z,9.51
2022-09-18T02:41:33.897Z,9.45
2022-09-18T02:42:33.902Z,9.45
2022-09-18T02:43:34.072Z,9.45
2022-09-18T02:44:33.926Z,9.45
2022-09-18T02:45:33.898Z,9.45
2022-09-18T02:46:34.064Z,9.45
2022-09-18T02:47:33.951Z,9.45
2022-09-18T02:48:33.927Z,9.45
2022-09-18T02:49:33.889Z,9.45
2022-09-18T02:50:33.905Z,9.45
2022-09-18T02:51:34.089Z,9.45
2022-09-18T02:52:34.028Z,9.45
2022-09-18T02:53:33.893Z,9.45
2022-09-18T02:54:33.989Z,9.45
2022-09-18T02:55:33.897Z,9.45
2022-09-18T02:56:33.900Z,9.45
2022-09-18T02:57:33.901Z,9.51
2022-09-18T02:58:33.924Z,9.45
2022-09-18T02:59:33.984Z,9.51
2022-09-18T03:00:33.905Z,9.45
2022-09-18T03:01:34.558Z,9.51
2022-09-18T03:02:33.933Z,9.51
2022-09-18T03:03:33.891Z,9.45
2022-09-18T03:04:33.899Z,9.45
2022-09-18T03:05:33.972Z,9.45
2022-09-18T03:06:33.944Z,9.45
2022-09-18T03:07:33.938Z,9.45
2022-09-18T03:08:33.893Z,9.45
2022-09-18T03:09:33.951Z,9.45
2022-09-18T03:10:33.993Z,9.45
2022-09-18T03:11:33.899Z,9.45
2022-09-18T03:12:33.898Z,9.45
2022-09-18T03:13:33.883Z,9.45
2022-09-18T03:14:34.135Z,9.45
2022-09-18T03:15:33.927Z,9.45
2022-09-18T03:16:33.997Z,9.45
2022-09-18T03:17:33.892Z,9.45
2022-09-18T03:18:33.895Z,9.45
2022-09-18T03:19:33.956Z,9.45
2022-09-18T03:20:33.972Z,9.45
2022-09-18T03:21:33.891Z,9.45
2022-09-18T03:22:33.948Z,9.45
2022-09-18T03:23:33.950Z,9.45
2022-09-18T03:24:33.888Z,9.45
2022-09-18T03:25:33.894Z,9.45
2022-09-18T03:26:33.894Z,9.45
2022-09-18T03:27:33.899Z,9.45
2022-09-18T03:28:33.905Z,9.45
2022-09-18T03:29:33.881Z,9.45
2022-09-18T03:30:33.939Z,9.45
2022-09-18T03:31:33.965Z,9.45
2022-09-18T03:32:33.886Z,9.45
2022-09-18T03:33:33.878Z,9.45
2022-09-18T03:34:33.901Z,9.45
2022-09-18T03:35:33.883Z,9.45
2022-09-18T03:36:33.901Z,9.45
2022-09-18T03:37:33.922Z,9.45
2022-09-18T03:38:33.946Z,9.45
2022-09-18T03:39:33.962Z,9.45
2022-09-18T03:40:33.974Z,9.45
2022-09-18T03:41:33.891Z,9.45
2022-09-18T03:42:33.881Z,9.45
2022-09-18T03:43:33.885Z,9.45
2022-09-18T03:44:33.887Z,9.45
2022-09-18T03:45:34.054Z,9.45
2022-09-18T03:46:34.104Z,9.45
2022-09-18T03:47:36.487Z,9.45
2022-09-18T03:48:33.999Z,9.45
2022-09-18T03:49:33.883Z,9.39
2022-09-18T03:50:33.883Z,9.45
2022-09-18T03:51:33.885Z,9.45
2022-09-18T03:52:33.898Z,9.39
2022-09-18T03:53:33.939Z,9.45
2022-09-18T03:54:33.921Z,9.45
2022-09-18T03:55:33.893Z,9.45
2022-09-18T03:56:33.893Z,9.45
2022-09-18T03:57:33.883Z,9.45
2022-09-18T03:58:33.894Z,9.45
2022-09-18T03:59:33.987Z,9.45
2022-09-18T04:00:33.890Z,9.45
2022-09-18T04:01:34.005Z,9.45
2022-09-18T04:02:34.035Z,9.39
2022-09-18T04:03:33.895Z,9.39
2022-09-18T04:04:33.890Z,9.39
2022-09-18T04:05:33.891Z,9.39
2022-09-18T04:06:33.963Z,9.45
2022-09-18T04:07:33.895Z,9.45
2022-09-18T04:08:33.884Z,9.39
2022-09-18T04:09:33.931Z,9.39
2022-09-18T04:10:33.991Z,9.39
2022-09-18T04:11:33.893Z,9.45
2022-09-18T04:12:33.887Z,9.45
2022-09-18T04:13:33.926Z,9.45
2022-09-18T04:14:33.928Z,9.39
2022-09-18T04:15:33.883Z,9.39
2022-09-18T04:16:34.123Z,9.39
2022-09-18T04:17:33.923Z,9.39
2022-09-18T04:18:33.905Z,9.39
2022-09-18T04:19:34.032Z,9.39
2022-09-18T04:20:33.900Z,9.39
2022-09-18T04:21:33.888Z,9.39
2022-09-18T04:22:33.899Z,9.39
2022-09-18T04:23:33.891Z,9.39
2022-09-18T04:24:33.924Z,9.39
2022-09-18T04:25:33.922Z,9.39
2022-09-18T04:26:33.967Z,9.39
2022-09-18T04:27:33.941Z,9.39
2022-09-18T04:28:33.977Z,9.39
2022-09-18T04:29:33.979Z,9.39
2022-09-18T04:30:33.882Z,9.39
2022-09-18T04:31:33.969Z,9.39
2022-09-18T04:32:33.945Z,9.39
2022-09-18T04:33:34.014Z,9.39
2022-09-18T04:34:34.099Z,9.39
2022-09-18T04:35:33.889Z,9.39
2022-09-18T04:36:33.889Z,9.39
2022-09-18T04:37:33.889Z,9.45
2022-09-18T04:38:33.961Z,9.45
2022-09-18T04:39:34.249Z,9.39
2022-09-18T04:40:34.058Z,9.45
2022-09-18T04:41:33.925Z,9.45
2022-09-18T04:42:33.896Z,9.45
2022-09-18T04:43:33.895Z,9.39
2022-09-18T04:44:34.133Z,9.39
2022-09-18T04:45:33.897Z,9.39
2022-09-18T04:46:34.132Z,9.39
2022-09-18T04:47:34.218Z,9.39
2022-09-18T04:48:34.006Z,9.39
2022-09-18T04:49:34.205Z,9.39
2022-09-18T04:50:33.903Z,9.39
2022-09-18T04:51:33.890Z,9.39
2022-09-18T04:52:34.007Z,9.45
2022-09-18T04:53:33.883Z,9.45
2022-09-18T04:54:34.236Z,9.45
2022-09-18T04:55:33.979Z,9.45
2022-09-18T04:56:33.938Z,9.45
2022-09-18T04:57:33.897Z,9.45
2022-09-18T04:58:33.933Z,9.45
2022-09-18T04:59:33.922Z,9.45
2022-09-18T05:00:33.918Z,9.45
2022-09-18T05:01:33.938Z,9.39
2022-09-18T05:02:33.888Z,9.39
2022-09-18T05:03:34.025Z,9.39
2022-09-18T05:04:33.922Z,9.39
2022-09-18T05:05:33.889Z,9.39
2022-09-18T05:06:33.886Z,9.45
2022-09-18T05:07:33.898Z,9.39
2022-09-18T05:08:33.884Z,9.45
2022-09-18T05:09:33.969Z,9.45
2022-09-18T05:10:33.904Z,9.45
2022-09-18T05:11:33.938Z,9.45
2022-09-18T05:12:33.928Z,9.45
2022-09-18T05:13:33.904Z,9.39
2022-09-18T05:14:33.887Z,9.39
2022-09-18T05:15:33.916Z,9.45
2022-09-18T05:16:33.997Z,9.45
2022-09-18T05:17:33.881Z,9.45
2022-09-18T05:18:34.002Z,9.45
2022-09-18T05:19:33.934Z,9.39
2022-09-18T05:20:33.984Z,9.45
2022-09-18T05:21:33.891Z,9.45
2022-09-18T05:22:33.887Z,9.45
2022-09-18T05:23:33.936Z,9.45
2022-09-18T05:24:33.874Z,9.45
2022-09-18T05:25:33.898Z,9.45
2022-09-18T05:26:33.904Z,9.45
2022-09-18T05:27:33.961Z,9.39
2022-09-18T05:28:33.893Z,9.39
2022-09-18T05:29:33.900Z,9.45
2022-09-18T05:30:33.883Z,9.39
2022-09-18T05:31:34.007Z,9.45
2022-09-18T05:32:33.890Z,9.39
2022-09-18T05:33:33.888Z,9.39
2022-09-18T05:34:33.979Z,9.39
2022-09-18T05:35:33.961Z,9.39
2022-09-18T05:36:33.891Z,9.45
2022-09-18T05:37:33.896Z,9.45
2022-09-18T05:38:33.879Z,9.39
2022-09-18T05:39:33.880Z,9.39
2022-09-18T05:40:33.951Z,9.45
2022-09-18T05:41:33.938Z,9.45
2022-09-18T05:42:33.926Z,9.45
2022-09-18T05:43:33.925Z,9.45
2022-09-18T05:44:33.894Z,9.45
2022-09-18T05:45:33.889Z,9.45
2022-09-18T05:46:33.972Z,9.39
2022-09-18T05:47:33.891Z,9.39
2022-09-18T05:48:33.932Z,9.45
2022-09-18T05:49:33.997Z,9.45
2022-09-18T05:50:33.940Z,9.45
2022-09-18T05:51:33.920Z,9.45
2022-09-18T05:52:33.889Z,9.45
2022-09-18T05:53:33.877Z,9.45
2022-09-18T05:54:33.889Z,9.45
2022-09-18T05:55:33.914Z,9.45
2022-09-18T05:56:33.986Z,9.45
2022-09-18T05:57:33.897Z,9.45
2022-09-18T05:58:33.929Z,9.45
2022-09-18T05:59:33.887Z,9.45
2022-09-18T06:00:33.893Z,9.45
2022-09-18T06:01:33.977Z,9.45
2022-09-18T06:02:34.016Z,9.45
2022-09-18T06:03:33.890Z,9.51
2022-09-18T06:04:33.996Z,9.51
2022-09-18T06:05:34.143Z,9.51
2022-09-18T06:06:34.208Z,9.51
2022-09-18T06:07:34.275Z,9.51
2022-09-18T06:08:34.325Z,9.51
2022-09-18T06:09:33.902Z,9.51
2022-09-18T06:10:33.939Z,9.51
2022-09-18T06:11:33.922Z,9.51
2022-09-18T06:12:33.906Z,9.51
2022-09-18T06:13:33.937Z,9.51
2022-09-18T06:14:33.939Z,9.51
2022-09-18T06:15:33.872Z,9.51
2022-09-18T06:16:35.677Z,9.51
2022-09-18T06:17:33.880Z,9.51
2022-09-18T06:18:33.882Z,9.51
2022-09-18T06:19:33.969Z,9.57
2022-09-18T06:20:34.028Z,9.57
2022-09-18T06:21:33.932Z,9.57
2022-09-18T06:22:33.921Z,9.57
2022-09-18T06:23:33.899Z,9.57
2022-09-18T06:24:33.886Z,9.57
2022-09-18T06:25:33.884Z,9.57
2022-09-18T06:26:33.905Z,9.57
2022-09-18T06:27:33.944Z,9.57
2022-09-18T06:28:33.886Z,9.57
2022-09-18T06:29:33.930Z,9.57
2022-09-18T06:30:33.932Z,9.57
2022-09-18T06:31:33.933Z,9.57
2022-09-18T06:32:33.914Z,9.57
2022-09-18T06:33:33.888Z,9.57
2022-09-18T06:34:38.494Z,9.57
2022-09-18T06:35:34.043Z,9.57
2022-09-18T06:36:33.873Z,9.57
2022-09-18T06:37:33.931Z,9.57
2022-09-18T06:38:33.946Z,9.63
2022-09-18T06:39:34.096Z,9.57
2022-09-18T06:40:34.169Z,9.57
2022-09-18T06:41:34.260Z,9.57
2022-09-18T06:42:34.027Z,9.57
2022-09-18T06:43:34.081Z,9.57
2022-09-18T06:44:34.173Z,9.57
2022-09-18T06:45:34.229Z,9.63
2022-09-18T06:46:33.983Z,9.57
2022-09-18T06:47:33.872Z,9.57
2022-09-18T06:48:33.889Z,9.57
2022-09-18T06:49:33.883Z,9.57
2022-09-18T06:50:33.889Z,9.57
2022-09-18T06:51:34.020Z,9.57
2022-09-18T06:52:33.951Z,9.57
2022-09-18T06:53:33.925Z,9.57
2022-09-18T06:54:33.886Z,9.57
2022-09-18T06:55:33.885Z,9.57
2022-09-18T06:56:33.885Z,9.57
2022-09-18T06:57:33.895Z,9.63
2022-09-18T06:59:33.881Z,9.63
2022-09-18T07:00:34.016Z,9.63
2022-09-18T07:01:33.982Z,9.63
2022-09-18T07:02:33.992Z,9.63
2022-09-18T07:03:33.892Z,9.63
2022-09-18T07:04:33.875Z,9.63
2022-09-18T07:05:33.871Z,9.57
2022-09-18T07:06:33.930Z,9.63
2022-09-18T07:07:33.892Z,9.63
2022-09-18T07:08:33.931Z,9.63
2022-09-18T07:09:33.923Z,9.57
2022-09-18T07:10:33.878Z,9.57
2022-09-18T07:11:33.877Z,9.57
2022-09-18T07:12:33.882Z,9.57
2022-09-18T07:13:33.887Z,9.57
2022-09-18T07:14:33.878Z,9.57
2022-09-18T07:15:33.900Z,9.63
2022-09-18T07:16:34.011Z,9.69
2022-09-18T07:17:33.916Z,9.69
2022-09-18T07:18:33.896Z,9.63
2022-09-18T07:19:33.894Z,9.69
2022-09-18T07:20:33.922Z,9.69
2022-09-18T07:21:33.885Z,9.69
2022-09-18T07:22:34.011Z,9.76
2022-09-18T07:23:33.894Z,9.76
2022-09-18T07:24:33.914Z,9.69
2022-09-18T07:25:33.894Z,9.76
2022-09-18T07:26:33.890Z,9.76
2022-09-18T07:27:33.898Z,9.76
2022-09-18T07:28:33.947Z,9.76
2022-09-18T07:29:33.876Z,9.82
2022-09-18T07:30:33.883Z,9.76
2022-09-18T07:31:34.018Z,9.76
2022-09-18T07:32:33.929Z,9.76
2022-09-18T07:33:33.876Z,9.82
2022-09-18T07:34:33.887Z,9.88
2022-09-18T07:35:33.872Z,9.82
2022-09-18T07:36:33.885Z,9.82
2022-09-18T07:37:33.880Z,9.82
2022-09-18T07:38:33.888Z,9.76
2022-09-18T07:39:33.930Z,9.82
2022-09-18T07:40:34.085Z,9.88
2022-09-18T07:41:33.907Z,9.88
2022-09-18T07:42:33.901Z,9.94
2022-09-18T07:43:33.887Z,9.94
2022-09-18T07:44:33.876Z,9.94
2022-09-18T07:45:33.949Z,9.94
2022-09-18T07:46:33.955Z,9.88
2022-09-18T07:47:34.037Z,9.94
2022-09-18T07:48:33.917Z,10
2022-09-18T07:49:33.892Z,10
2022-09-18T07:50:33.905Z,10
2022-09-18T07:51:33.879Z,10.07
2022-09-18T07:52:33.882Z,10.07
2022-09-18T07:53:33.986Z,10
2022-09-18T07:54:33.884Z,10
2022-09-18T07:55:33.912Z,10
2022-09-18T07:56:33.888Z,9.94
2022-09-18T07:57:33.881Z,9.88
2022-09-18T07:58:33.876Z,9.82
2022-09-18T07:59:33.927Z,9.82
2022-09-18T08:00:33.880Z,9.82
2022-09-18T08:01:33.945Z,9.88
2022-09-18T08:02:34.165Z,9.82
2022-09-18T08:03:37.933Z,9.82
2022-09-18T08:04:33.882Z,9.88
2022-09-18T08:05:33.887Z,9.82
2022-09-18T08:06:33.882Z,9.82
2022-09-18T08:07:33.886Z,9.88
2022-09-18T08:08:33.883Z,9.88
2022-09-18T08:09:33.893Z,9.88
2022-09-18T08:10:33.925Z,9.82
2022-09-18T08:11:33.914Z,9.88
2022-09-18T08:12:33.872Z,9.94
2022-09-18T08:13:34.008Z,10
2022-09-18T08:14:33.885Z,10
2022-09-18T08:15:33.869Z,10.07
2022-09-18T08:16:34.015Z,10
2022-09-18T08:17:33.881Z,10.13
2022-09-18T08:18:33.925Z,10.2
2022-09-18T08:19:33.907Z,10.32
2022-09-18T08:20:33.880Z,10.26
2022-09-18T08:21:33.887Z,10.26
2022-09-18T08:22:33.894Z,10.32
2022-09-18T08:23:33.870Z,10.32
2022-09-18T08:24:34.028Z,10.39
2022-09-18T08:25:33.877Z,10.39
2022-09-18T08:26:33.926Z,10.32
2022-09-18T08:27:33.910Z,10.32
2022-09-18T08:28:33.894Z,10.26
2022-09-18T08:29:33.881Z,10.2
2022-09-18T08:30:33.893Z,10.2
2022-09-18T08:31:33.952Z,10.13
2022-09-18T08:32:33.882Z,10.07
2022-09-18T08:33:33.923Z,10.13
2022-09-18T08:34:34.087Z,10.13
2022-09-18T08:35:34.165Z,10.13
2022-09-18T08:36:34.209Z,10.2
2022-09-18T08:37:34.180Z,10.2
2022-09-18T08:38:33.882Z,10.26
2022-09-18T08:39:34.172Z,10.26
2022-09-18T08:40:34.137Z,10.32
2022-09-18T08:41:33.919Z,10.32
2022-09-18T08:42:33.918Z,10.32
2022-09-18T08:43:33.894Z,10.26
2022-09-18T08:44:33.909Z,10.32
2022-09-18T08:45:33.878Z,10.26
2022-09-18T08:46:33.976Z,10.32
2022-09-18T08:47:33.880Z,10.32
2022-09-18T08:48:33.875Z,10.39
2022-09-18T08:49:33.947Z,10.39
2022-09-18T08:50:38.218Z,10.39
2022-09-18T08:51:33.880Z,10.39
2022-09-18T08:52:33.891Z,10.39
2022-09-18T08:53:33.874Z,10.32
2022-09-18T08:54:33.889Z,10.39
2022-09-18T08:55:34.056Z,10.39
2022-09-18T08:56:33.870Z,10.39
2022-09-18T08:57:33.935Z,10.46
2022-09-18T08:58:33.914Z,10.52
2022-09-18T08:59:33.906Z,10.52
2022-09-18T09:00:33.908Z,10.52
2022-09-18T09:01:33.880Z,10.46
2022-09-18T09:02:33.904Z,10.39
2022-09-18T09:03:33.885Z,10.39
2022-09-18T09:04:33.885Z,10.46
2022-09-18T09:05:33.923Z,10.46
2022-09-18T09:06:33.874Z,10.46
2022-09-18T09:07:33.914Z,10.39
2022-09-18T09:08:33.878Z,10.46
2022-09-18T09:09:33.888Z,10.46
2022-09-18T09:10:33.883Z,10.46
2022-09-18T09:11:33.917Z,10.46
2022-09-18T09:12:33.949Z,10.52
2022-09-18T09:13:33.924Z,10.59
2022-09-18T09:14:55.410Z,10.72
2022-09-18T09:15:33.892Z,10.72
2022-09-18T09:16:33.951Z,10.72
2022-09-18T09:17:33.900Z,10.72
2022-09-18T09:18:33.876Z,10.65
2022-09-18T09:19:33.887Z,10.72
2022-09-18T09:20:33.951Z,10.65
2022-09-18T09:21:33.933Z,10.79
2022-09-18T09:22:33.872Z,10.72
2022-09-18T09:23:33.952Z,10.59
2022-09-18T09:24:33.889Z,10.59
2022-09-18T09:25:33.884Z,10.59
2022-09-18T09:26:34.058Z,10.59
2022-09-18T09:27:33.881Z,10.52
2022-09-18T09:28:33.924Z,10.52
2022-09-18T09:29:33.924Z,10.52
2022-09-18T09:30:33.874Z,10.46
2022-09-18T09:31:33.988Z,10.39
2022-09-18T09:32:33.876Z,10.32
2022-09-18T09:33:33.873Z,10.2
2022-09-18T09:34:33.872Z,10.13
2022-09-18T09:35:33.876Z,10.2
2022-09-18T09:36:33.944Z,10.2
2022-09-18T09:37:34.035Z,10.2
2022-09-18T09:38:33.870Z,10.26
2022-09-18T09:39:33.887Z,10.26
2022-09-18T09:40:34.032Z,10.26
2022-09-18T09:41:33.956Z,10.2
2022-09-18T09:42:33.898Z,10.26
2022-09-18T09:43:33.876Z,10.32
2022-09-18T09:44:33.917Z,10.32
2022-09-18T09:45:33.884Z,10.26
2022-09-18T09:46:34.003Z,10.26
2022-09-18T09:47:33.893Z,10.26
2022-09-18T09:48:33.985Z,10.26
2022-09-18T09:49:33.882Z,10.32
2022-09-18T09:50:33.883Z,10.32
2022-09-18T09:51:33.932Z,10.32
2022-09-18T09:52:33.999Z,10.32
2022-09-18T09:53:33.897Z,10.32
2022-09-18T09:54:33.927Z,10.26
2022-09-18T09:55:33.882Z,10.26
2022-09-18T09:56:33.888Z,10.26
2022-09-18T09:57:34.008Z,10.26
2022-09-18T09:58:33.886Z,10.2
2022-09-18T09:59:33.939Z,10.13
2022-09-18T10:00:33.987Z,10.07
2022-09-18T10:01:33.940Z,9.94
2022-09-18T10:02:33.944Z,9.94
2022-09-18T10:03:33.895Z,9.88
2022-09-18T10:04:33.901Z,9.88
2022-09-18T10:05:33.899Z,9.88
2022-09-18T10:06:33.882Z,9.82
2022-09-18T10:07:33.925Z,9.82
2022-09-18T10:08:33.925Z,9.82
2022-09-18T10:09:33.898Z,9.82
2022-09-18T10:10:33.888Z,9.88
2022-09-18T10:11:33.870Z,9.88
2022-09-18T10:12:33.884Z,9.88
2022-09-18T10:13:33.911Z,9.88
2022-09-18T10:14:33.881Z,9.94
2022-09-18T10:15:33.930Z,10
2022-09-18T10:16:33.982Z,9.94
2022-09-18T10:17:33.890Z,10
2022-09-18T10:18:33.882Z,10
2022-09-18T10:19:33.889Z,10
2022-09-18T10:20:33.874Z,10.07
2022-09-18T10:21:33.895Z,10.07
2022-09-18T10:22:33.885Z,10.07
2022-09-18T10:23:34.178Z,10.13
2022-09-18T10:24:33.925Z,10.13
2022-09-18T10:25:33.875Z,10.2
2022-09-18T10:26:33.883Z,10.26
2022-09-18T10:27:33.955Z,10.32
2022-09-18T10:28:34.005Z,10.46
2022-09-18T10:29:35.955Z,10.52
2022-09-18T10:30:33.970Z,10.65
2022-09-18T10:31:33.994Z,10.79
2022-09-18T10:32:33.894Z,10.79
2022-09-18T10:33:33.928Z,10.92
2022-09-18T10:34:33.873Z,10.92
2022-09-18T10:35:33.894Z,10.85
2022-09-18T10:36:33.870Z,10.85
2022-09-18T10:37:33.875Z,10.85
2022-09-18T10:38:33.918Z,10.85
2022-09-18T10:39:33.922Z,10.79
2022-09-18T10:40:33.965Z,10.72
2022-09-18T10:41:33.878Z,10.65
2022-09-18T10:42:33.863Z,10.59
2022-09-18T10:43:33.878Z,10.52
2022-09-18T10:44:33.923Z,10.52
2022-09-18T10:45:33.876Z,10.46
2022-09-18T10:46:33.972Z,10.46
2022-09-18T10:47:33.962Z,10.39
2022-09-18T10:48:33.971Z,10.46
2022-09-18T10:49:33.873Z,10.46
2022-09-18T10:50:34.640Z,10.39
2022-09-18T10:51:33.873Z,10.26
2022-09-18T10:52:33.901Z,10.26
2022-09-18T10:53:33.881Z,10.2
2022-09-18T10:54:33.930Z,10.07
2022-09-18T10:55:33.896Z,10
2022-09-18T10:56:33.883Z,10
2022-09-18T10:57:33.868Z,9.94
2022-09-18T10:58:33.902Z,9.94
2022-09-18T10:59:34.001Z,9.88
2022-09-18T11:00:33.961Z,9.94
2022-09-18T11:01:33.968Z,9.94
2022-09-18T11:02:33.982Z,9.94
2022-09-18T11:03:33.867Z,9.94
2022-09-18T11:04:33.865Z,10
2022-09-18T11:05:33.874Z,10.07
2022-09-18T11:06:33.878Z,10.07
2022-09-18T11:07:33.868Z,10
2022-09-18T11:08:33.875Z,10.07
2022-09-18T11:09:33.929Z,10.07
2022-09-18T11:10:33.922Z,10.07
2022-09-18T11:11:33.871Z,10.07
2022-09-18T11:12:33.869Z,10.07
2022-09-18T11:13:33.884Z,10.07
2022-09-18T11:14:33.891Z,10.13
2022-09-18T11:15:33.868Z,10.13
2022-09-18T11:16:33.914Z,10.13
2022-09-18T11:17:33.957Z,10.13
2022-09-18T11:18:33.914Z,10.2
2022-09-18T11:19:33.879Z,10.07
2022-09-18T11:20:33.927Z,10.07
2022-09-18T11:21:33.882Z,10.07
2022-09-18T11:22:33.875Z,10
2022-09-18T11:23:33.890Z,10.13
2022-09-18T11:24:33.879Z,10.13
2022-09-18T11:25:33.921Z,10.07
2022-09-18T11:26:33.933Z,10.07
2022-09-18T11:27:33.877Z,10.07
2022-09-18T11:28:33.928Z,10.13
2022-09-18T11:29:33.883Z,10.13
2022-09-18T11:30:34.001Z,10.13
2022-09-18T11:31:33.976Z,10.13
2022-09-18T11:32:33.881Z,10.13
2022-09-18T11:33:33.915Z,10.13
2022-09-18T11:34:33.935Z,10.13
2022-09-18T11:35:33.872Z,10.2
2022-09-18T11:36:33.881Z,10.2
2022-09-18T11:37:33.884Z,10.2
2022-09-18T11:38:33.878Z,10.13
2022-09-18T11:39:33.872Z,10.13
2022-09-18T11:40:34.213Z,10
2022-09-18T11:41:34.164Z,10.07
2022-09-18T11:42:34.231Z,10
2022-09-18T11:43:33.921Z,9.94
2022-09-18T11:44:34.336Z,10
2022-09-18T11:45:33.863Z,10
2022-09-18T11:46:33.911Z,9.94
2022-09-18T11:47:33.885Z,9.94
2022-09-18T11:48:33.934Z,9.94
2022-09-18T11:49:33.925Z,9.88
2022-09-18T11:50:33.892Z,9.94
2022-09-18T11:51:33.876Z,9.88
2022-09-18T11:52:33.904Z,9.88
2022-09-18T11:53:33.877Z,9.88
2022-09-18T11:54:33.868Z,9.94
2022-09-18T11:55:33.911Z,9.82
2022-09-18T11:56:33.940Z,9.82
2022-09-18T11:57:33.909Z,9.82
2022-09-18T11:58:33.863Z,9.88
2022-09-18T11:59:33.917Z,9.88
2022-09-18T12:00:33.876Z,9.88
2022-09-18T12:01:34.005Z,9.82
2022-09-18T12:02:34.083Z,9.82
2022-09-18T12:03:33.937Z,9.82
2022-09-18T12:04:33.930Z,9.82
2022-09-18T12:05:33.907Z,9.88
2022-09-18T12:06:33.866Z,9.88
2022-09-18T12:07:35.612Z,9.88
2022-09-18T12:08:32.522Z,9.88
2022-09-18T12:09:32.515Z,9.88
2022-09-18T12:10:32.568Z,9.88
2022-09-18T12:11:32.507Z,9.88
2022-09-18T12:12:32.553Z,9.94
2022-09-18T12:13:32.537Z,9.88
2022-09-18T12:14:32.514Z,9.94
2022-09-18T12:15:32.503Z,9.94
2022-09-18T12:16:32.579Z,9.94
2022-09-18T12:17:32.511Z,9.94
2022-09-18T12:18:32.513Z,9.94
2022-09-18T12:19:32.518Z,9.88
2022-09-18T12:20:32.546Z,9.88
2022-09-18T12:21:32.493Z,9.88
2022-09-18T12:22:32.547Z,9.88
2022-09-18T12:23:32.512Z,9.88
2022-09-18T12:24:32.562Z,9.88
2022-09-18T12:25:32.520Z,9.82
2022-09-18T12:26:32.502Z,9.82
2022-09-18T12:27:32.598Z,9.88
2022-09-18T12:28:32.543Z,9.88
2022-09-18T12:29:32.498Z,9.82
2022-09-18T12:30:32.549Z,9.82
2022-09-18T12:31:32.544Z,9.82
2022-09-18T12:32:32.620Z,9.76
2022-09-18T12:33:34.306Z,9.76
2022-09-18T12:34:32.506Z,9.76
2022-09-18T12:35:32.533Z,9.82
2022-09-18T12:36:32.536Z,9.82
2022-09-18T12:37:32.492Z,9.82
2022-09-18T12:38:32.508Z,9.82
2022-09-18T12:39:33.170Z,9.82
2022-09-18T12:40:33.219Z,9.88
2022-09-18T12:41:33.247Z,9.88
2022-09-18T12:42:33.152Z,9.88
2022-09-18T12:43:33.213Z,9.94
2022-09-18T12:44:33.206Z,9.94
2022-09-18T12:45:33.184Z,10
2022-09-18T12:46:33.148Z,10.2
2022-09-18T12:47:33.178Z,10.2
2022-09-18T12:48:33.156Z,10.26
2022-09-18T12:49:33.169Z,10.32
2022-09-18T12:50:33.152Z,10.26
2022-09-18T12:51:33.192Z,10.26
2022-09-18T12:52:33.205Z,10.26
2022-09-18T12:53:33.517Z,10.32
2022-09-18T12:54:33.143Z,10.32
2022-09-18T12:55:33.140Z,10.32
2022-09-18T12:56:33.149Z,10.46
2022-09-18T12:57:33.135Z,10.59
2022-09-18T12:58:33.179Z,10.65
2022-09-18T12:59:33.194Z,10.72
2022-09-18T13:00:33.174Z,10.79
2022-09-18T13:01:33.143Z,10.65
2022-09-18T13:02:33.156Z,10.65
2022-09-18T13:03:33.382Z,10.65
2022-09-18T13:04:33.136Z,10.72
2022-09-18T13:05:33.145Z,10.72
2022-09-18T13:06:33.230Z,10.79
2022-09-18T13:07:33.174Z,10.79
2022-09-18T13:08:33.134Z,10.85
2022-09-18T13:09:33.194Z,10.72
2022-09-18T13:10:33.146Z,10.72
2022-09-18T13:11:33.133Z,10.72
2022-09-18T13:12:33.123Z,10.72
2022-09-18T13:13:33.125Z,10.72
2022-09-18T13:14:33.176Z,10.72